KTKI

McKinney National Airport

Dallas, Texas, USA
METAR KTKI 241353Z 18010KT 10SM BKN039 OVC047 28/22 A2989 RMK AO2 PRESFR SLP113 T02780217
Observed Flight Rules
Jun-24 @ 13:53 UTC (an hour ago) Visual Flight Rules
Wind Visibility Clouds
180° at 10 knots 10 miles
  • Broken at 3,900' AGL
  • Overcast at 4,700' AGL
Temperatures Readings
Current 28°C / 82°F
Dewpoint 22°C / 72°F
Humidity 70%
Altimeter 29.89" Hg
Pressure 1011.3 hPa
Elevation 179
METAR KTKI 241353Z 18010KT 10SM BKN039 OVC047 28/22 A2989 RMK AO2 PRESFR SLP113 T02780217
Observed Flight Rules
Jun-24 @ 13:53 UTC
(an hour ago)
VFR
Wind Visibility
180° at 10 knots 10 miles
Clouds
  • Broken at 3,900' AGL
  • Overcast at 4,700' AGL
Temperature Dewpoint
28°C / 82°F 22°C / 72°F
Humidity Altimeter Pressure
70% 29.89" Hg 1011.3 hPa